KPMU/PMU METAR and TAF weather

Enter ICAO airport designator
Station Type Date Time Source
KPMU METAR 2021/01/27 13:15 UTC NOAA

KPMU 271315Z AUTO 34008KT 10SM BKN100 06/03 A3010 RMK AO2


Station Type Date Time Source
KPMU Decoded METAR 2021/01/27 13:15 UTC NOAA

Station name not available
Jan 27, 2021 - 08:15 AM EST / 2021.01.27 1315 UTC
Wind: from the NNW (340 degrees) at 9 MPH (8 KT):0
Visibility: 10 mile(s):0
Sky conditions: mostly cloudy
Temperature: 42 F (6 C)
Dew Point: 37 F (3 C)
Relative Humidity: 81%
Pressure (altimeter): 30.1 in. Hg (1019 hPa)
ob: KPMU 271315Z AUTO 34008KT 10SM BKN100 06/03 A3010 RMK AO2
cycle: 13

Station Type Date Time Source
KPMU TAF UTC NOAA

Error!

Example: see airport list